Time;durP1;ratioP1;P1;durP2;ratioP2;P2;SDS_P1;SDS_P2;PMS_P1;PMS_P2;Temp;Humidity;BMP_temperature;BMP_pressure;BME280_temperature;BME280_humidity;BME280_pressure;Samples;Min_cycle;Max_cycle;Signal;HPM_P1;HPM_P2
2024/01/10 05:31:04;;;;;;;0.20;0.20;;;0.60;70.30;;;;;;5673274;23;20042;-79
2024/01/10 05:33:30;;;;;;;0.20;0.20;;;0.70;70.40;;;;;;4993968;28;20023;-79
2024/01/10 05:35:55;;;;;;;0.20;0.20;;;0.70;70.50;;;;;;5011996;28;20509;-79
2024/01/10 05:38:21;;;;;;;0.20;0.20;;;0.90;70.60;;;;;;5014930;28;20080;-79
2024/01/10 05:40:47;;;;;;;0.20;0.20;;;0.80;70.10;;;;;;5009319;28;20088;-79
2024/01/10 05:43:12;;;;;;;0.20;0.20;;;0.80;70.40;;;;;;4992437;28;20034;-79
2024/01/10 05:45:38;;;;;;;0.20;0.20;;;0.80;70.50;;;;;;4978042;28;20033;-79
2024/01/10 05:48:04;;;;;;;0.20;0.20;;;0.80;70.10;;;;;;4986025;28;20019;-83
2024/01/10 05:50:30;;;;;;;0.20;0.20;;;0.90;70.00;;;;;;4987199;28;20487;-79
2024/01/10 05:52:56;;;;;;;0.10;0.10;;;0.70;70.00;;;;;;4977801;28;20031;-79
2024/01/10 05:55:23;;;;;;;0.20;0.20;;;0.60;70.30;;;;;;4976819;28;20037;-79
2024/01/10 05:57:49;;;;;;;0.20;0.20;;;0.70;70.70;;;;;;4977681;28;20506;-81
2024/01/10 06:00:16;;;;;;;0.20;0.20;;;0.50;70.40;;;;;;4984762;28;20034;-75
2024/01/10 06:02:42;;;;;;;0.10;0.10;;;0.50;70.90;;;;;;4993505;28;20027;-75
2024/01/10 06:05:09;;;;;;;0.20;0.20;;;0.50;71.20;;;;;;4995463;28;20030;-75
2024/01/10 06:07:36;;;;;;;0.20;0.20;;;0.60;71.10;;;;;;5013850;28;20470;-76
2024/01/10 06:10:02;;;;;;;0.10;0.10;;;0.70;71.30;;;;;;5015584;28;20433;-75
2024/01/10 06:12:28;;;;;;;0.20;0.20;;;0.80;71.00;;;;;;4990592;28;20027;-75
2024/01/10 06:14:54;;;;;;;0.20;0.20;;;0.80;70.80;;;;;;4977386;28;20038;-74
2024/01/10 06:17:20;;;;;;;0.20;0.20;;;0.80;70.50;;;;;;4987157;28;20026;-75
2024/01/10 06:19:46;;;;;;;0.20;0.20;;;0.90;70.90;;;;;;4993457;28;20045;-75
2024/01/10 06:22:11;;;;;;;0.10;0.10;;;0.80;70.20;;;;;;4994380;28;20479;-76
2024/01/10 06:24:37;;;;;;;0.20;0.20;;;0.90;70.60;;;;;;4994168;28;20058;-75
2024/01/10 06:27:04;;;;;;;0.20;0.20;;;0.90;70.70;;;;;;4994339;28;20038;-75
2024/01/10 06:29:30;;;;;;;0.20;0.20;;;0.80;70.60;;;;;;4995178;28;20018;-75
2024/01/10 06:31:57;;;;;;;0.20;0.20;;;0.70;71.00;;;;;;4994877;28;20046;-76
2024/01/10 06:34:22;;;;;;;0.20;0.20;;;0.70;71.00;;;;;;4991963;28;20034;-76
2024/01/10 06:36:48;;;;;;;0.10;0.10;;;0.70;71.40;;;;;;4995134;28;20172;-75
2024/01/10 06:39:15;;;;;;;0.10;0.10;;;0.70;70.80;;;;;;4995895;28;20106;-76
2024/01/10 06:41:42;;;;;;;0.20;0.20;;;0.70;71.40;;;;;;4980033;28;20542;-76
2024/01/10 06:44:08;;;;;;;0.20;0.20;;;0.80;71.30;;;;;;4980838;28;20101;-79
2024/01/10 06:46:34;;;;;;;0.20;0.20;;;0.80;70.90;;;;;;4996337;28;20031;-78
2024/01/10 06:49:00;;;;;;;0.20;0.20;;;0.80;71.00;;;;;;4980730;28;20102;-77
2024/01/10 06:51:26;;;;;;;0.20;0.20;;;0.90;71.20;;;;;;4998026;28;20113;-77
2024/01/10 06:53:52;;;;;;;0.10;0.10;;;0.90;70.60;;;;;;4995046;28;20035;-78
2024/01/10 06:56:18;;;;;;;0.20;0.20;;;0.90;70.80;;;;;;4996367;28;20034;-79
2024/01/10 06:58:44;;;;;;;0.20;0.20;;;0.80;70.30;;;;;;4980860;28;20023;-78
2024/01/10 07:01:13;;;;;;;0.20;0.20;;;0.80;70.90;;;;;;4984583;28;20070;-79
2024/01/10 07:03:42;;;;;;;0.20;0.20;;;0.80;70.80;;;;;;4989551;28;20033;-78
2024/01/10 07:06:08;;;;;;;0.20;0.20;;;0.70;70.80;;;;;;5000636;28;20018;-79
2024/01/10 07:08:33;;;;;;;0.20;0.20;;;0.60;71.20;;;;;;4996304;28;20041;-78
2024/01/10 07:10:59;;;;;;;0.10;0.10;;;0.70;71.50;;;;;;4979502;28;20065;-79
2024/01/10 07:13:24;;;;;;;0.20;0.20;;;0.70;71.40;;;;;;4980660;28;20023;-79
2024/01/10 07:15:53;;;;;;;0.20;0.20;;;0.70;71.10;;;;;;4979918;28;20031;-79
2024/01/10 07:18:18;;;;;;;0.20;0.20;;;0.70;71.10;;;;;;4987253;28;20034;-79
2024/01/10 07:20:44;;;;;;;0.20;0.20;;;0.70;71.30;;;;;;4979709;28;20062;-79
2024/01/10 07:23:10;;;;;;;0.10;0.10;;;0.60;70.70;;;;;;4980182;28;20042;-79
2024/01/10 07:25:37;;;;;;;0.20;0.20;;;0.50;71.60;;;;;;4980825;28;20027;-79
2024/01/10 07:28:03;;;;;;;0.20;0.20;;;0.60;71.40;;;;;;4980107;28;20022;-79
2024/01/10 07:30:32;;;;;;;0.20;0.20;;;0.70;71.30;;;;;;4980157;28;20126;-79
2024/01/10 07:32:59;;;;;;;0.15;0.15;;;0.70;71.50;;;;;;4980513;28;20023;-79
2024/01/10 07:35:26;;;;;;;0.20;0.20;;;0.50;70.90;;;;;;4979277;28;20027;-79
2024/01/10 07:37:52;;;;;;;0.20;0.20;;;0.60;71.40;;;;;;4980116;28;20027;-79
2024/01/10 07:40:18;;;;;;;0.10;0.10;;;0.70;71.30;;;;;;4989985;28;20064;-78
2024/01/10 07:42:43;;;;;;;0.20;0.20;;;0.70;71.10;;;;;;4999980;28;20042;-78
2024/01/10 07:45:09;;;;;;;0.20;0.20;;;0.60;71.20;;;;;;4980248;28;20479;-79
2024/01/10 07:47:38;;;;;;;0.20;0.20;;;0.60;71.70;;;;;;4995400;28;20022;-78
2024/01/10 07:50:08;;;;;;;0.20;0.20;;;0.70;71.50;;;;;;4980112;28;20047;-79
2024/01/10 07:52:34;;;;;;;0.20;0.20;;;0.70;71.80;;;;;;4979423;28;20027;-79
2024/01/10 07:55:00;;;;;;;0.10;0.10;;;0.60;71.40;;;;;;4980128;28;20030;-79
2024/01/10 07:57:27;;;;;;;0.20;0.20;;;0.60;71.70;;;;;;4980126;28;20034;-79
2024/01/10 07:59:53;;;;;;;0.20;0.20;;;0.60;71.90;;;;;;4983881;28;20027;-79
2024/01/10 08:02:19;;;;;;;0.20;0.20;;;0.70;71.80;;;;;;4999542;28;20030;-79
2024/01/10 08:04:44;;;;;;;0.20;0.20;;;0.60;71.50;;;;;;4990518;28;20026;-79
2024/01/10 08:07:10;;;;;;;0.10;0.10;;;0.40;71.70;;;;;;4997437;28;20038;-79
2024/01/10 08:09:36;;;;;;;0.20;0.20;;;0.50;72.10;;;;;;4982644;28;20026;-79
2024/01/10 08:12:05;;;;;;;0.20;0.20;;;0.50;71.80;;;;;;4977852;28;20062;-79
2024/01/10 08:14:31;;;;;;;0.20;0.20;;;0.60;71.80;;;;;;4983035;28;20393;-79
2024/01/10 08:16:58;;;;;;;0.13;0.13;;;0.50;71.90;;;;;;4997154;28;20033;-79
2024/01/10 08:19:27;;;;;;;0.15;0.15;;;0.60;72.00;;;;;;4998446;28;20030;-78
2024/01/10 08:21:56;;;;;;;0.20;0.20;;;0.70;72.00;;;;;;4997543;28;20027;-79
2024/01/10 08:24:22;;;;;;;0.20;0.20;;;0.70;71.90;;;;;;4992030;28;20410;-79
2024/01/10 08:26:52;;;;;;;0.20;0.20;;;0.80;71.90;;;;;;4983166;28;20037;-79
2024/01/10 08:29:21;;;;;;;0.20;0.20;;;0.90;71.80;;;;;;4992518;28;20514;-79
2024/01/10 08:31:47;;;;;;;0.10;0.10;;;0.80;71.50;;;;;;4993443;28;20458;-79
2024/01/10 08:34:13;;;;;;;0.20;0.20;;;0.80;71.50;;;;;;4992991;28;20038;-79
2024/01/10 08:36:39;;;;;;;0.20;0.20;;;0.90;71.50;;;;;;4996985;28;20470;-79
2024/01/10 08:39:06;;;;;;;0.20;0.20;;;0.90;71.50;;;;;;4996671;28;20153;-79
2024/01/10 08:41:32;;;;;;;0.20;0.20;;;0.90;71.40;;;;;;4992890;28;20118;-79
2024/01/10 08:43:58;;;;;;;0.20;0.20;;;0.80;71.60;;;;;;4978176;28;20097;-78
2024/01/10 08:46:26;;;;;;;0.20;0.20;;;0.70;71.50;;;;;;4977213;28;20027;-79
2024/01/10 08:48:52;;;;;;;0.20;0.20;;;0.70;72.00;;;;;;4990000;28;20023;-79
2024/01/10 08:51:18;;;;;;;0.20;0.20;;;0.80;71.60;;;;;;4978302;28;20023;-79
2024/01/10 08:53:44;;;;;;;0.20;0.20;;;0.80;71.70;;;;;;4978410;28;20616;-79
2024/01/10 08:56:10;;;;;;;0.20;0.20;;;0.90;71.60;;;;;;4978438;28;20045;-78
2024/01/10 08:58:36;;;;;;;0.20;0.20;;;0.90;71.40;;;;;;4993218;28;20027;-79
2024/01/10 09:01:04;;;;;;;0.20;0.20;;;0.90;71.50;;;;;;4991839;28;20065;-79
2024/01/10 09:03:30;;;;;;;0.20;0.20;;;0.90;71.70;;;;;;4995760;28;20030;-78
2024/01/10 09:05:55;;;;;;;0.20;0.20;;;0.90;71.60;;;;;;4996070;28;20508;-79
2024/01/10 09:08:21;;;;;;;0.20;0.20;;;1.00;71.30;;;;;;4997535;28;20033;-79
2024/01/10 09:10:49;;;;;;;0.20;0.20;;;1.00;71.10;;;;;;4991607;28;20027;-79
2024/01/10 09:13:15;;;;;;;0.20;0.20;;;1.00;71.10;;;;;;4978060;28;20027;-79
2024/01/10 09:15:40;;;;;;;0.20;0.20;;;0.90;71.40;;;;;;4978157;28;20042;-79
2024/01/10 09:18:06;;;;;;;0.20;0.20;;;0.80;71.60;;;;;;4977877;28;20122;-79
2024/01/10 09:20:31;;;;;;;0.20;0.20;;;0.70;72.20;;;;;;4981991;28;20511;-79
2024/01/10 09:22:59;;;;;;;0.20;0.20;;;0.80;72.40;;;;;;4977795;28;20069;-80
2024/01/10 09:25:25;;;;;;;0.10;0.10;;;0.80;71.90;;;;;;4981695;28;20026;-81
2024/01/10 09:27:51;;;;;;;0.20;0.20;;;0.70;72.40;;;;;;4990294;28;20014;-80
2024/01/10 09:30:18;;;;;;;0.20;0.20;;;0.90;72.40;;;;;;4995190;28;20026;-78
2024/01/10 09:32:44;;;;;;;0.20;0.20;;;0.80;71.70;;;;;;4994428;28;20449;-78
2024/01/10 09:35:10;;;;;;;0.10;0.10;;;0.80;72.10;;;;;;4993646;28;20098;-79
2024/01/10 09:37:35;;;;;;;0.20;0.20;;;0.80;72.00;;;;;;4994801;28;20474;-81
2024/01/10 09:40:01;;;;;;;0.10;0.10;;;0.90;72.20;;;;;;4993082;28;20077;-77
2024/01/10 09:42:31;;;;;;;0.20;0.20;;;0.90;72.10;;;;;;4995774;28;20021;-78
2024/01/10 09:44:57;;;;;;;0.20;0.20;;;1.10;71.90;;;;;;4995575;28;20053;-79
2024/01/10 09:47:23;;;;;;;0.20;0.20;;;0.90;71.40;;;;;;4990381;28;20035;-81
2024/01/10 09:49:49;;;;;;;0.20;0.20;;;0.90;72.20;;;;;;4989148;28;20037;-79
2024/01/10 09:52:40;;;;;;;0.20;0.20;;;0.80;71.80;;;;;;4992866;28;20031;-79
2024/01/10 09:55:09;;;;;;;0.20;0.20;;;0.80;72.60;;;;;;4990773;28;20397;-80
2024/01/10 09:57:36;;;;;;;0.10;0.10;;;0.80;72.70;;;;;;4994863;28;20057;-80
2024/01/10 10:00:04;;;;;;;0.20;0.20;;;0.80;72.30;;;;;;4994153;28;20637;-79
2024/01/10 10:02:32;;;;;;;0.20;0.20;;;0.90;72.70;;;;;;4994064;28;20028;-79
2024/01/10 10:05:25;;;;;;;0.20;0.20;;;1.00;72.50;;;;;;4994289;28;20138;-79
2024/01/10 10:07:53;;;;;;;0.20;0.20;;;1.10;72.00;;;;;;4989118;28;20034;-79
2024/01/10 10:10:19;;;;;;;0.10;0.10;;;1.10;72.10;;;;;;4994174;28;20025;-79
2024/01/10 10:12:55;;;;;;;0.10;0.10;;;1.10;72.00;;;;;;4994440;28;20457;-80
2024/01/10 10:15:28;;;;;;;0.20;0.20;;;1.20;72.20;;;;;;4990239;28;20106;-79
2024/01/10 10:17:54;;;;;;;0.20;0.20;;;1.10;72.20;;;;;;4995382;28;20394;-79
2024/01/10 10:20:21;;;;;;;0.20;0.20;;;1.10;72.00;;;;;;4994560;28;20034;-79
2024/01/10 10:23:17;;;;;;;0.20;0.20;;;1.10;72.60;;;;;;4994095;28;20149;-79
2024/01/10 10:25:44;;;;;;;0.20;0.20;;;1.20;72.10;;;;;;4993277;28;20105;-79
2024/01/10 10:28:09;;;;;;;0.10;0.10;;;1.20;72.00;;;;;;4994998;28;20022;-79
2024/01/10 10:30:35;;;;;;;0.20;0.20;;;1.20;72.20;;;;;;4994915;28;20057;-79
2024/01/10 10:33:05;;;;;;;0.20;0.20;;;1.20;72.40;;;;;;4990664;28;20031;-79
2024/01/10 10:35:33;;;;;;;0.20;0.20;;;1.20;71.90;;;;;;4995111;28;20478;-79
2024/01/10 10:37:59;;;;;;;0.20;0.20;;;1.20;72.10;;;;;;4992379;28;20026;-79
2024/01/10 10:40:25;;;;;;;0.20;0.20;;;1.20;72.40;;;;;;4991344;28;20106;-79
2024/01/10 10:42:57;;;;;;;0.20;0.20;;;1.30;72.60;;;;;;4993401;28;20026;-79
2024/01/10 10:45:26;;;;;;;0.20;0.20;;;1.40;72.20;;;;;;4991553;28;20018;-79
2024/01/10 10:47:59;;;;;;;0.20;0.20;;;1.50;71.90;;;;;;4994975;28;20033;-79
2024/01/10 10:50:32;;;;;;;;;;;1.40;72.20;;;;;;4992480;28;20030;-79
2024/01/10 10:53:00;;;;;;;0.20;0.20;;;1.30;72.40;;;;;;4995728;28;20005;-79
2024/01/10 10:55:27;;;;;;;0.20;0.20;;;1.20;72.50;;;;;;4995551;28;20022;-79
2024/01/10 10:57:55;;;;;;;0.15;0.15;;;1.20;72.70;;;;;;4996141;28;20014;-79
2024/01/10 11:00:26;;;;;;;0.20;0.20;;;1.40;72.70;;;;;;4991055;28;20405;-76
2024/01/10 11:02:54;;;;;;;0.10;0.10;;;1.40;72.40;;;;;;4989882;28;20548;-74
2024/01/10 11:05:21;;;;;;;0.20;0.20;;;1.40;72.00;;;;;;4988706;28;20106;-74
2024/01/10 11:07:47;;;;;;;0.20;0.20;;;1.40;72.40;;;;;;4988149;28;20068;-74
2024/01/10 11:10:28;;;;;;;0.20;0.20;;;1.40;72.00;;;;;;4991720;28;20141;-74
2024/01/10 11:13:06;;;;;;;0.20;0.20;;;1.50;72.10;;;;;;4993719;28;20098;-74
2024/01/10 11:15:50;;;;;;;0.10;0.10;;;1.60;72.00;;;;;;5001804;28;20018;-74
2024/01/10 11:18:38;;;;;;;0.10;0.10;;;1.60;71.90;;;;;;4995781;28;20038;-74
2024/01/10 11:21:25;;;;;;;0.20;0.20;;;1.50;71.70;;;;;;4993086;28;20034;-74
2024/01/10 11:23:56;;;;;;;0.20;0.20;;;1.40;72.30;;;;;;4993476;28;20026;-75
2024/01/10 11:26:21;;;;;;;0.20;0.20;;;1.50;72.20;;;;;;4992465;28;20429;-75
2024/01/10 11:28:48;;;;;;;0.10;0.10;;;1.40;71.90;;;;;;4996520;28;20068;-74
2024/01/10 11:31:15;;;;;;;0.20;0.20;;;1.40;72.40;;;;;;4994015;28;20690;-75
2024/01/10 11:33:43;;;;;;;0.10;0.10;;;1.50;72.20;;;;;;4993604;28;20048;-74
2024/01/10 11:36:17;;;;;;;0.20;0.20;;;1.60;71.90;;;;;;4990440;28;20030;-74
2024/01/10 11:39:01;;;;;;;0.20;0.20;;;1.60;71.90;;;;;;4995414;28;20545;-75
2024/01/10 11:41:31;;;;;;;0.20;0.20;;;1.60;71.50;;;;;;4997319;28;20446;-74
2024/01/10 11:44:13;;;;;;;0.10;0.10;;;1.60;71.80;;;;;;4993622;28;20097;-73
2024/01/10 11:46:42;;;;;;;0.20;0.20;;;1.70;71.60;;;;;;4993866;28;20014;-76
2024/01/10 11:49:16;;;;;;;0.10;0.10;;;1.70;72.00;;;;;;4996335;28;20400;-75
2024/01/10 11:51:46;;;;;;;0.20;0.20;;;1.60;71.00;;;;;;4993388;28;20072;-74
2024/01/10 11:54:12;;;;;;;0.20;0.20;;;1.50;71.70;;;;;;4996092;28;20030;-75
2024/01/10 11:56:43;;;;;;;0.20;0.20;;;1.60;72.30;;;;;;4997000;28;20026;-74
2024/01/10 11:59:14;;;;;;;0.20;0.20;;;1.60;71.90;;;;;;4996354;28;20049;-75
2024/01/10 12:01:41;;;;;;;0.20;0.20;;;1.60;72.30;;;;;;4999374;28;20513;-73
2024/01/10 12:04:08;;;;;;;0.20;0.20;;;1.70;71.90;;;;;;4996814;28;20077;-74
2024/01/10 12:06:37;;;;;;;0.20;0.20;;;1.70;71.70;;;;;;4998136;28;20026;-76
2024/01/10 12:09:11;;;;;;;0.20;0.20;;;1.70;71.50;;;;;;4996179;28;20038;-75
2024/01/10 12:11:41;;;;;;;0.20;0.20;;;1.70;71.50;;;;;;4996465;28;20022;-76
2024/01/10 12:14:08;;;;;;;0.20;0.20;;;1.70;71.50;;;;;;4997598;28;20030;-76
2024/01/10 12:16:34;;;;;;;0.20;0.20;;;1.80;71.50;;;;;;4996342;28;20080;-76
2024/01/10 12:19:00;;;;;;;0.20;0.20;;;1.90;71.20;;;;;;4997934;28;20027;-76
2024/01/10 12:21:25;;;;;;;0.20;0.20;;;1.90;71.20;;;;;;4994134;28;20080;-76
2024/01/10 12:23:51;;;;;;;0.20;0.20;;;1.90;70.80;;;;;;4995802;28;20026;-78
2024/01/10 12:26:18;;;;;;;0.20;0.20;;;2.00;71.10;;;;;;4995407;28;20393;-77
2024/01/10 12:28:57;;;;;;;0.10;0.10;;;2.00;71.00;;;;;;4996814;28;20022;-76
2024/01/10 12:31:26;;;;;;;0.20;0.20;;;2.00;70.60;;;;;;4994646;28;20043;-76
2024/01/10 12:33:52;;;;;;;0.20;0.20;;;2.00;70.60;;;;;;4997068;28;20030;-75
2024/01/10 12:36:19;;;;;;;0.20;0.20;;;2.00;70.50;;;;;;4990039;28;20461;-76
2024/01/10 12:38:45;;;;;;;0.20;0.20;;;2.00;70.20;;;;;;4989046;28;20062;-75
2024/01/10 12:41:11;;;;;;;0.20;0.20;;;1.80;70.60;;;;;;4993528;28;20540;-75
2024/01/10 12:43:38;;;;;;;0.20;0.20;;;1.80;70.90;;;;;;4989183;28;20030;-75
2024/01/10 12:46:13;;;;;;;0.20;0.20;;;1.80;71.00;;;;;;4994464;28;20025;-75
2024/01/10 12:48:42;;;;;;;0.20;0.20;;;1.80;71.20;;;;;;4994904;28;20026;-75
2024/01/10 12:51:14;;;;;;;0.20;0.20;;;1.90;70.90;;;;;;4994255;28;20034;-76
2024/01/10 12:53:44;;;;;;;0.20;0.20;;;1.80;70.90;;;;;;4987345;28;20031;-76
2024/01/10 12:56:14;;;;;;;0.20;0.20;;;1.80;71.20;;;;;;4995501;28;20030;-75
2024/01/10 12:58:41;;;;;;;0.20;0.20;;;1.80;71.00;;;;;;4994250;28;20030;-75
2024/01/10 13:01:13;;;;;;;0.20;0.20;;;1.90;71.10;;;;;;4996870;28;20054;-75
2024/01/10 13:03:39;;;;;;;0.20;0.20;;;2.00;70.90;;;;;;4992725;28;20034;-75
2024/01/10 13:06:05;;;;;;;0.20;0.20;;;2.10;70.80;;;;;;4996285;28;20173;-75
2024/01/10 13:08:34;;;;;;;0.20;0.20;;;2.00;70.50;;;;;;4995332;28;20050;-75
2024/01/10 13:11:00;;;;;;;0.17;0.17;;;2.00;70.90;;;;;;4994913;28;20372;-75
2024/01/10 13:13:26;;;;;;;0.10;0.10;;;2.10;70.50;;;;;;4996619;28;20056;-75
2024/01/10 13:15:51;;;;;;;0.20;0.20;;;2.10;70.40;;;;;;4992715;28;20030;-75
2024/01/10 13:18:18;;;;;;;0.20;0.20;;;2.00;70.60;;;;;;4994476;28;20031;-75
2024/01/10 13:20:44;;;;;;;0.10;0.10;;;2.10;70.50;;;;;;4993550;28;20026;-75
2024/01/10 13:23:10;;;;;;;0.10;0.10;;;2.10;70.30;;;;;;4996103;28;20490;-75
2024/01/10 13:25:37;;;;;;;0.20;0.20;;;2.00;70.10;;;;;;4997002;28;20038;-75
2024/01/10 13:28:06;;;;;;;0.17;0.17;;;2.00;70.90;;;;;;4995503;28;20061;-76
2024/01/10 13:30:32;;;;;;;0.20;0.20;;;2.10;70.90;;;;;;4994631;28;20046;-75
2024/01/10 13:32:58;;;;;;;0.20;0.20;;;2.10;70.70;;;;;;4997427;28;20034;-76
2024/01/10 13:35:24;;;;;;;0.20;0.20;;;2.10;70.50;;;;;;4991856;28;20030;-76
2024/01/10 13:37:50;;;;;;;0.10;0.10;;;2.10;70.40;;;;;;4998107;28;20035;-76
2024/01/10 13:40:16;;;;;;;0.20;0.20;;;2.20;70.10;;;;;;4996245;28;20457;-75
2024/01/10 13:42:43;;;;;;;0.17;0.17;;;2.20;70.00;;;;;;4998298;28;20027;-75
2024/01/10 13:45:13;;;;;;;0.10;0.10;;;2.20;70.00;;;;;;4995226;28;20027;-74
2024/01/10 13:47:39;;;;;;;0.10;0.10;;;2.20;70.10;;;;;;4996771;28;20073;-75
2024/01/10 13:50:06;;;;;;;0.20;0.20;;;2.10;69.60;;;;;;4989536;28;20058;-75
2024/01/10 13:52:33;;;;;;;0.20;0.20;;;2.10;70.20;;;;;;4994268;28;21373;-75
2024/01/10 13:54:59;;;;;;;0.10;0.10;;;2.00;70.30;;;;;;4991854;28;20164;-75
2024/01/10 13:57:25;;;;;;;0.10;0.10;;;2.10;70.40;;;;;;4996744;28;20026;-75
2024/01/10 13:59:51;;;;;;;0.10;0.10;;;2.20;70.50;;;;;;4994158;28;20038;-75
2024/01/10 14:02:19;;;;;;;0.20;0.20;;;2.20;70.30;;;;;;4995714;28;20037;-75
2024/01/10 14:04:45;;;;;;;0.10;0.10;;;2.20;69.70;;;;;;4992621;28;20109;-75
2024/01/10 14:07:11;;;;;;;0.20;0.20;;;2.20;70.00;;;;;;4996290;28;20065;-75
2024/01/10 14:09:37;;;;;;;0.20;0.20;;;2.20;70.00;;;;;;4993698;28;20083;-75
2024/01/10 14:12:02;;;;;;;0.20;0.20;;;2.20;69.80;;;;;;4997056;28;20030;-75
2024/01/10 14:14:28;;;;;;;0.20;0.20;;;2.20;70.00;;;;;;4996926;28;20025;-75
2024/01/10 14:16:54;;;;;;;0.10;0.10;;;2.20;69.70;;;;;;4993410;28;20085;-75
2024/01/10 14:19:20;;;;;;;0.20;0.20;;;2.20;69.90;;;;;;4998156;28;20488;-75
2024/01/10 14:21:46;;;;;;;0.10;0.10;;;2.10;69.40;;;;;;4996386;28;20033;-75
2024/01/10 14:24:12;;;;;;;0.10;0.10;;;2.00;69.90;;;;;;4991647;28;20023;-74
2024/01/10 14:26:39;;;;;;;0.20;0.20;;;1.80;70.30;;;;;;4974284;28;20030;-73
2024/01/10 14:29:05;;;;;;;0.10;0.10;;;1.90;70.60;;;;;;4994249;28;20085;-74
2024/01/10 14:31:31;;;;;;;0.17;0.17;;;2.00;70.60;;;;;;4991798;28;20497;-75
2024/01/10 14:33:57;;;;;;;0.17;0.17;;;2.00;70.10;;;;;;4994863;28;20483;-75
2024/01/10 14:36:22;;;;;;;0.17;0.17;;;2.00;69.90;;;;;;4994012;28;20042;-74
2024/01/10 14:38:48;;;;;;;0.15;0.15;;;2.10;70.20;;;;;;4993182;28;20027;-74
2024/01/10 14:41:14;;;;;;;0.20;0.20;;;2.20;70.00;;;;;;4996927;28;20030;-74
2024/01/10 14:43:40;;;;;;;0.20;0.20;;;2.20;69.40;;;;;;4994747;28;20061;-74
2024/01/10 14:46:06;;;;;;;0.13;0.13;;;2.20;69.90;;;;;;4997327;28;20130;-74
2024/01/10 14:48:33;;;;;;;0.10;0.10;;;2.10;69.50;;;;;;4993250;28;20026;-74
2024/01/10 14:51:01;;;;;;;0.20;0.20;;;2.10;69.90;;;;;;4993573;28;20448;-74
2024/01/10 14:53:27;;;;;;;0.20;0.20;;;1.90;70.40;;;;;;4992490;28;20053;-74
2024/01/10 14:55:53;;;;;;;0.10;0.10;;;2.00;70.80;;;;;;4991507;28;20482;-74
2024/01/10 14:58:20;;;;;;;0.20;0.20;;;2.00;70.40;;;;;;4993721;28;20109;-74
2024/01/10 15:00:46;;;;;;;0.17;0.17;;;2.00;70.60;;;;;;4995416;28;20121;-74
2024/01/10 15:03:11;;;;;;;0.15;0.15;;;2.00;70.00;;;;;;4997628;28;20031;-74
2024/01/10 15:05:40;;;;;;;0.20;0.20;;;2.10;70.10;;;;;;4997571;28;20042;-74
2024/01/10 15:08:07;;;;;;;0.20;0.20;;;2.10;70.40;;;;;;4997934;28;20490;-74
2024/01/10 15:10:33;;;;;;;0.20;0.20;;;2.00;69.70;;;;;;4996926;28;20038;-74
2024/01/10 15:12:59;;;;;;;0.20;0.20;;;2.00;70.50;;;;;;4998658;28;20527;-74
2024/01/10 15:15:25;;;;;;;0.10;0.10;;;2.00;70.30;;;;;;4995363;28;20162;-74
2024/01/10 15:17:51;;;;;;;0.20;0.20;;;2.00;70.30;;;;;;4999112;28;20019;-74
2024/01/10 15:20:19;;;;;;;0.20;0.20;;;1.80;70.00;;;;;;4995110;28;20857;-74
2024/01/10 15:22:45;;;;;;;0.10;0.10;;;1.70;71.00;;;;;;4999786;28;20026;-74
2024/01/10 15:25:13;;;;;;;0.20;0.20;;;1.80;70.90;;;;;;5002131;28;20389;-72
2024/01/10 15:27:39;;;;;;;0.10;0.10;;;1.90;70.70;;;;;;5000551;28;20030;-74
2024/01/10 15:30:05;;;;;;;0.10;0.10;;;1.80;70.00;;;;;;4999552;28;20121;-73
2024/01/10 15:32:31;;;;;;;0.15;0.15;;;1.70;70.00;;;;;;4997277;28;20081;-73
2024/01/10 15:34:57;;;;;;;0.20;0.20;;;1.80;70.50;;;;;;4998829;28;20042;-74
2024/01/10 15:37:23;;;;;;;0.20;0.20;;;1.80;70.50;;;;;;5000249;28;20026;-75
2024/01/10 15:39:49;;;;;;;0.20;0.20;;;1.80;69.90;;;;;;4996933;28;20035;-74
2024/01/10 15:42:15;;;;;;;0.20;0.20;;;1.80;70.40;;;;;;4997145;28;20470;-74
2024/01/10 15:44:42;;;;;;;0.10;0.10;;;1.80;70.20;;;;;;4998158;28;20077;-74
2024/01/10 15:47:08;;;;;;;0.20;0.20;;;1.70;70.80;;;;;;4995772;28;20030;-74
2024/01/10 15:49:34;;;;;;;0.20;0.20;;;1.70;70.80;;;;;;4998436;28;20069;-74
2024/01/10 15:51:59;;;;;;;0.10;0.10;;;1.80;71.20;;;;;;4994459;28;20445;-74
2024/01/10 15:54:25;;;;;;;0.20;0.20;;;1.90;70.50;;;;;;4996605;28;20031;-75
2024/01/10 15:56:51;;;;;;;0.10;0.10;;;2.00;70.30;;;;;;4996126;28;20407;-76
2024/01/10 15:59:16;;;;;;;0.10;0.10;;;1.90;70.20;;;;;;4997703;28;20030;-74
2024/01/10 16:01:42;;;;;;;0.20;0.20;;;1.90;70.10;;;;;;4998685;28;20034;-74
2024/01/10 16:04:08;;;;;;;0.15;0.15;;;1.90;69.50;;;;;;4997434;28;20057;-74
2024/01/10 16:06:35;;;;;;;0.20;0.20;;;1.80;69.70;;;;;;4995083;28;20034;-74
2024/01/10 16:09:01;;;;;;;0.20;0.20;;;1.70;70.00;;;;;;4994553;28;20505;-74
2024/01/10 16:11:29;;;;;;;0.20;0.20;;;1.70;70.30;;;;;;4995426;28;20022;-75
2024/01/10 16:13:54;;;;;;;0.20;0.20;;;1.70;70.00;;;;;;4996627;28;20890;-74
2024/01/10 16:16:26;;;;;;;0.20;0.20;;;1.70;70.20;;;;;;4983982;28;20550;-74
2024/01/10 16:18:52;;;;;;;0.20;0.20;;;1.70;70.60;;;;;;4993938;28;20490;-74
2024/01/10 16:21:21;;;;;;;0.20;0.20;;;1.80;70.50;;;;;;4994070;28;20026;-75
2024/01/10 16:23:46;;;;;;;0.10;0.10;;;1.70;70.20;;;;;;4994436;28;20481;-75
2024/01/10 16:26:12;;;;;;;0.20;0.20;;;1.70;71.10;;;;;;4995734;28;20054;-75
2024/01/10 16:28:38;;;;;;;0.20;0.20;;;1.70;70.80;;;;;;4998002;28;20029;-76
2024/01/10 16:31:03;;;;;;;0.10;0.10;;;1.80;70.60;;;;;;4997384;28;20177;-76
2024/01/10 16:33:29;;;;;;;0.20;0.20;;;1.80;70.30;;;;;;4993933;28;20030;-77
2024/01/10 16:35:55;;;;;;;0.20;0.20;;;1.70;71.00;;;;;;4996456;28;20038;-78
2024/01/10 16:38:20;;;;;;;0.20;0.20;;;1.60;71.20;;;;;;4987437;28;20034;-76
2024/01/10 16:40:46;;;;;;;0.20;0.20;;;1.70;71.20;;;;;;4994538;28;20065;-77
2024/01/10 16:43:11;;;;;;;0.20;0.20;;;1.80;71.00;;;;;;5013607;28;20029;-77
2024/01/10 16:45:37;;;;;;;0.20;0.20;;;1.90;70.80;;;;;;4995459;28;20433;-77
2024/01/10 16:48:03;;;;;;;0.20;0.20;;;1.90;70.40;;;;;;4978653;28;20027;-76
2024/01/10 16:50:30;;;;;;;0.10;0.10;;;2.00;70.50;;;;;;4978517;28;20827;-77
2024/01/10 16:52:59;;;;;;;0.20;0.20;;;1.90;70.30;;;;;;4978029;28;20049;-77
2024/01/10 16:55:25;;;;;;;0.10;0.10;;;1.90;70.60;;;;;;4989791;28;20022;-85
2024/01/10 16:57:51;;;;;;;0.20;0.20;;;1.90;70.60;;;;;;4993115;28;20033;-85
2024/01/10 17:00:17;;;;;;;0.20;0.20;;;1.90;70.50;;;;;;4991293;28;20054;-83
2024/01/10 17:02:43;;;;;;;0.20;0.20;;;1.90;70.20;;;;;;4991124;28;20545;-81
2024/01/10 17:05:09;;;;;;;0.10;0.10;;;1.80;70.60;;;;;;4996013;28;20026;-81
2024/01/10 17:07:35;;;;;;;0.20;0.20;;;1.80;70.80;;;;;;4984004;28;20034;-82
2024/01/10 17:10:28;;;;;;;0.20;0.20;;;1.80;70.60;;;;;;4993358;28;20022;-82
2024/01/10 17:12:54;;;;;;;0.10;0.10;;;1.80;70.80;;;;;;4969385;28;20487;-85
2024/01/10 17:15:20;;;;;;;0.20;0.20;;;1.80;70.80;;;;;;4989698;28;20058;-84
2024/01/10 17:17:46;;;;;;;0.20;0.20;;;1.80;70.80;;;;;;4993317;28;20045;-83
2024/01/10 17:20:13;;;;;;;0.20;0.20;;;1.80;70.70;;;;;;4995643;28;20101;-88
2024/01/10 17:22:39;;;;;;;0.20;0.20;;;1.80;70.90;;;;;;4996803;28;20053;-84
2024/01/10 17:25:05;;;;;;;0.20;0.20;;;1.80;70.80;;;;;;4979920;28;20039;-83
2024/01/10 17:27:31;;;;;;;0.20;0.20;;;1.80;70.80;;;;;;4988870;28;20027;-83
2024/01/10 17:29:58;;;;;;;0.20;0.20;;;1.90;71.10;;;;;;4994682;28;20386;-82
2024/01/10 17:32:24;;;;;;;0.10;0.10;;;1.80;71.10;;;;;;4993123;28;20049;-82
2024/01/10 17:34:50;;;;;;;0.20;0.20;;;1.80;70.90;;;;;;4977708;28;20053;-82
2024/01/10 17:37:16;;;;;;;0.20;0.20;;;1.80;71.00;;;;;;4980106;28;20043;-82
2024/01/10 17:39:42;;;;;;;0.20;0.20;;;1.70;70.90;;;;;;4977229;28;20049;-82
2024/01/10 17:42:08;;;;;;;0.10;0.10;;;1.80;71.30;;;;;;5005723;28;20649;-82
2024/01/10 17:44:37;;;;;;;0.20;0.20;;;1.80;71.10;;;;;;4994009;28;20038;-82
2024/01/10 17:47:04;;;;;;;0.10;0.10;;;1.70;71.00;;;;;;4991653;28;20038;-82
2024/01/10 17:49:29;;;;;;;0.20;0.20;;;1.70;71.40;;;;;;4994567;28;20410;-82
2024/01/10 17:51:55;;;;;;;0.20;0.20;;;1.70;71.30;;;;;;4993108;28;20034;-82
2024/01/10 17:54:20;;;;;;;0.10;0.10;;;1.70;71.30;;;;;;4987519;28;20039;-82
2024/01/10 17:56:46;;;;;;;0.10;0.10;;;1.70;71.40;;;;;;4981171;28;20045;-82
2024/01/10 17:59:11;;;;;;;0.10;0.10;;;1.70;71.40;;;;;;4995908;28;20029;-82
2024/01/10 18:01:38;;;;;;;0.20;0.20;;;1.80;71.30;;;;;;4996218;28;20030;-82
2024/01/10 18:04:04;;;;;;;0.20;0.20;;;1.80;71.20;;;;;;4990596;28;20030;-82
2024/01/10 18:06:29;;;;;;;0.10;0.10;;;1.70;71.20;;;;;;4995875;28;20105;-82
2024/01/10 18:08:55;;;;;;;0.10;0.10;;;1.70;71.40;;;;;;4993763;28;20037;-82
2024/01/10 18:11:21;;;;;;;0.20;0.20;;;1.70;71.40;;;;;;4993386;28;20486;-82
2024/01/10 18:13:46;;;;;;;0.20;0.20;;;1.70;71.70;;;;;;4996454;28;20430;-82
2024/01/10 18:16:12;;;;;;;0.20;0.20;;;1.70;71.60;;;;;;4991258;28;20034;-82
2024/01/10 18:18:38;;;;;;;0.20;0.20;;;1.70;71.60;;;;;;5004747;28;20030;-82
2024/01/10 18:21:03;;;;;;;0.20;0.20;;;1.80;71.50;;;;;;4996868;28;20102;-80
2024/01/10 18:23:29;;;;;;;0.20;0.20;;;1.80;71.50;;;;;;4994027;28;20034;-78
2024/01/10 18:25:55;;;;;;;0.20;0.20;;;1.80;71.30;;;;;;4995005;28;20033;-76
2024/01/10 18:28:22;;;;;;;0.20;0.20;;;1.80;71.30;;;;;;4995364;28;20504;-76